Terminal Aerodrome Forecast
Issued by NWS

Home | Current Version | Previous Version | Graphics & Text | Print | Product List | Glossary On
Versions: 1 2 3 4 5 6 7 8 9 10 11 12 13
762
FTUS43 KICT 182321
TAFRSL
TAF
KRSL 182321Z 1900/1924 35025G31KT P6SM FEW070
     FM190200 36010KT P6SM FEW250
     FM190500 01006KT P6SM SKC
     FM191900 06006KT P6SM SKC
     FM192300 11009KT P6SM SKC=

USA.gov is the U.S. government's official web portal to all federal, state and local government web resources and services.